** WELKOM OP ONZE WEBSITE MET ACTUELE WEERDATA VANUIT IZEGEM **
Het weer levert geen direct gevaar op.    Er zijn geen waarschuwingen afgegeven.

Weercam te Izegem Meer informatie Weercam te Izegem


Lokaal brand risico:
FWI


Regionaal brand risico: Meer informatie


Steun ons initiatief via een kleine donatie!



METAR rapporten vliegvelden

   
EBOS - Oostende Airport, Belgium
Afstand tot: NW 39 km
Gewijzigd: 21-01-2019 09:20
Gedeeltelijk bewolkt  
Gedeeltelijk bewolkt  
   Wind: ZZW 5.6 km/h
Wind: ZZW 5.6 km/h
Temperatuur: -6°C
Voelt als: -9°C
Dauwpunt: -8°C
Vochtigheid: 86%
Barometer: 1024 hPa
Bewolking: Partly Cloudy
Zicht: 7 km
Bewolking: Gedeeltelijk bewolkt ft
EBOS 210820Z 21003KT 7000 NSC M06/M08 Q1024 NOSIG
LFQQ - Lille/Lesquin, France
Afstand tot: Z 40 km
Gewijzigd: 21-01-2019 09:00
Nevel, Gedeeltelijk bewolkt  
Nevel, Gedeeltelijk bewolkt  
   Wind: varieert 3.7 km/h
Wind: varieert 3.7 km/h
Temperatuur: -5°C
Dauwpunt: -6°C
Vochtigheid: 93%
Barometer: 1024 hPa
Bewolking: Partly Cloudy
Zicht: 5 km
Bewolking: Gedeeltelijk bewolkt ft
LFQQ 210800Z AUTO VRB02KT 5000 BR NSC M05/M06 Q1024 NOSIG
EBFN - Koksijde (bel-Af, Belgium
Afstand tot: WNW 43 km
Gewijzigd: 21-01-2019 09:07
Licht bewolkt  
Licht bewolkt  
   Wind: varieert 3.7 km/h
Wind: varieert 3.7 km/h
Temperatuur: -5°C
Dauwpunt: -6°C
Vochtigheid: 93%
Barometer: 1024 hPa
Bewolking: Few Clouds
Zicht: 7 km
Bewolking: Licht bewolkt 25000 ft
EBFN 210807Z VRB02KT 7000 FEW250 M05/M06 Q1024 WHT WHT BECMG BLU
EBCV - Chievres Ab, Belgium
Afstand tot: ZO 59 km
Gewijzigd: 21-01-2019 09:04
Helder  
Helder  
   Wind: varieert 1.9 km/h
Wind: varieert 1.9 km/h
Temperatuur: -6°C
Dauwpunt: -6°C
Vochtigheid: 100%
Barometer: 1024 hPa
Bewolking: Clear
Zicht: 5 km
Bewolking: Helder ft
EBCV 210804Z AUTO VRB01KT 4800 NCD M06/M06 Q1024 GRN
EHFS - Vlissingen, Netherlands
Afstand tot: NNO 65 km
Gewijzigd: 21-01-2019 08:55
Helder  
Helder  
   Wind: WZW 9.3 km/h
Wind: WZW 9.3 km/h
Temperatuur: 1°C
Voelt als: -2°C
Dauwpunt: -1°C
Vochtigheid: 87%
Barometer: 1023 hPa
Bewolking: Clear
Zicht: meer dan 10 km
Bewolking: Helder ft
EHFS 210755Z AUTO 25005KT 9999 NCD 01/M01 Q1023 W///H///
EBBR - Brussels Nationa, Belgium
Afstand tot: O 91 km
Gewijzigd: 21-01-2019 09:20
Gedeeltelijk bewolkt  
Gedeeltelijk bewolkt  
   Wind: Zuiden 3.7 km/h
Wind: Zuiden 3.7 km/h
Temperatuur: -5°C
Dauwpunt: -7°C
Vochtigheid: 86%
Barometer: 1024 hPa
Bewolking: Partly Cloudy
Zicht: 8 km
Bewolking: Gedeeltelijk bewolkt ft
EBBR 210820Z 19002KT 8000 NSC M05/M07 Q1024 NOSIG
EBAW - Antwerp/Deurne, Belgium
Afstand tot: ONO 94 km
Gewijzigd: 21-01-2019 09:20
Helder  
Helder  
   Wind: ZO 5.6 km/h
Wind: ZO 5.6 km/h
Temperatuur: -7°C
Voelt als: -10°C
Dauwpunt: -8°C
Vochtigheid: 93%
Barometer: 1024 hPa
Zicht: meer dan 10 km
Bewolking: Helder ft
EBAW 210820Z 14003KT CAVOK M07/M08 Q1024 NOSIG
EHWO - Woensdrecht Rnla, Netherlands
Afstand tot: NO 98 km
Gewijzigd: 21-01-2019 09:25
Helder  
Helder  
   Wind: Kalm
Wind: Kalm
Temperatuur: -8°C
Dauwpunt: -9°C
Vochtigheid: 93%
Barometer: 1023 hPa
Bewolking: Clear
Zicht: meer dan 10 km
Bewolking: Helder ft
EHWO 210825Z AUTO 00000KT 9999 NCD M08/M09 Q1023 BLU VRB02KT CAVOK BECMG 21003KT
EBCI - Charleroi/Gossel, Belgium
Afstand tot: OZO 102 km
Gewijzigd: 21-01-2019 09:20
Nevel, Gedeeltelijk bewolkt  
Nevel, Gedeeltelijk bewolkt  
   Wind: WNW 5.6 km/h
Wind: WNW 5.6 km/h
Temperatuur: -6°C
Voelt als: -9°C
Dauwpunt: -7°C
Vochtigheid: 93%
Barometer: 1023 hPa
Bewolking: Partly Cloudy
Zicht: 5 km
Bewolking: Gedeeltelijk bewolkt ft
EBCI 210820Z 30003KT 5000 BR NSC M06/M07 Q1023 NOSIG

Script ontwikkeld door  Saratoga-weather.org Aangepast voor de template door  Weerstation Leuven